Time;durP1;ratioP1;P1;durP2;ratioP2;P2;SDS_P1;SDS_P2;PMS_P1;PMS_P2;Temp;Humidity;BMP_temperature;BMP_pressure;BME280_temperature;BME280_humidity;BME280_pressure;Samples;Min_cycle;Max_cycle;Signal;HPM_P1;HPM_P2
2023/08/28 00:00:14;;;;;;;2.30;2.10;;;24.90;99.90;;;;;;6242597;27;90313;-67
2023/08/28 00:03:17;;;;;;;2.63;2.20;;;24.90;99.90;;;;;;6252749;27;90826;-67
2023/08/28 00:06:20;;;;;;;2.47;2.25;;;24.90;99.90;;;;;;6244607;27;89044;-67
2023/08/28 00:09:22;;;;;;;2.30;2.10;;;24.90;99.90;;;;;;6252923;27;89375;-68
2023/08/28 00:12:24;;;;;;;2.20;2.00;;;24.90;99.90;;;;;;6243793;27;89552;-67
2023/08/28 00:15:26;;;;;;;2.40;2.20;;;24.90;99.90;;;;;;6252570;27;88915;-67
2023/08/28 00:18:30;;;;;;;2.53;2.33;;;24.80;99.90;;;;;;6253118;27;88805;-67
2023/08/28 00:21:32;;;;;;;2.70;2.38;;;24.80;99.90;;;;;;6249988;27;89404;-67
2023/08/28 00:24:34;;;;;;;2.20;2.00;;;24.80;99.90;;;;;;6233923;28;89113;-67
2023/08/28 00:27:36;;;;;;;2.20;2.00;;;24.80;99.90;;;;;;6244086;28;90192;-68
2023/08/28 00:30:38;;;;;;;3.03;2.40;;;24.80;99.90;;;;;;6240863;28;88029;-67
2023/08/28 00:33:41;;;;;;;2.15;1.95;;;24.80;99.90;;;;;;6249726;28;88985;-67
2023/08/28 00:36:44;;;;;;;2.10;1.90;;;24.80;99.90;;;;;;6253344;28;87980;-67
2023/08/28 00:39:46;;;;;;;2.20;2.00;;;24.80;99.90;;;;;;6240521;27;88736;-67
2023/08/28 00:42:48;;;;;;;2.10;2.00;;;24.80;99.90;;;;;;6250430;28;89066;-67
2023/08/28 00:45:50;;;;;;;2.60;2.40;;;24.80;99.90;;;;;;6241984;28;89145;-68
2023/08/28 00:48:53;;;;;;;3.15;2.70;;;24.80;99.90;;;;;;6245873;27;88253;-67
2023/08/28 00:51:55;;;;;;;2.88;2.33;;;24.80;99.90;;;;;;6252360;27;88034;-68
2023/08/28 00:54:57;;;;;;;2.70;2.42;;;24.80;99.90;;;;;;6255948;28;89556;-67
2023/08/28 00:57:59;;;;;;;2.25;2.05;;;24.80;99.90;;;;;;6246857;28;88826;-68
2023/08/28 01:01:02;;;;;;;2.65;2.10;;;24.70;99.90;;;;;;6253120;28;89191;-67
2023/08/28 01:04:06;;;;;;;2.47;2.28;;;24.80;99.90;;;;;;6252345;27;89067;-67
2023/08/28 01:07:15;;;;;;;2.10;1.90;;;24.80;99.90;;;;;;6253556;28;89409;-68
2023/08/28 01:10:28;;;;;;;2.58;2.38;;;24.70;99.90;;;;;;6253445;28;89238;-68
2023/08/28 01:13:36;;;;;;;2.58;2.38;;;24.80;99.90;;;;;;6237184;28;89319;-68
2023/08/28 01:16:39;;;;;;;2.65;2.40;;;24.80;99.90;;;;;;6249381;28;92012;-68
2023/08/28 01:19:44;;;;;;;2.63;2.30;;;24.70;99.90;;;;;;6248600;27;88296;-68
2023/08/28 01:22:59;;;;;;;2.53;2.30;;;24.70;99.90;;;;;;6251065;28;89089;-67
2023/08/28 01:26:02;;;;;;;2.47;2.28;;;24.80;99.90;;;;;;6241580;27;89038;-68
2023/08/28 01:29:04;;;;;;;3.35;2.17;;;24.70;99.90;;;;;;6248219;28;88969;-68
2023/08/28 01:32:07;;;;;;;3.05;2.42;;;24.70;99.90;;;;;;6240979;27;89102;-68
2023/08/28 01:35:11;;;;;;;2.30;2.05;;;24.70;99.90;;;;;;6257335;28;88979;-68
2023/08/28 01:38:20;;;;;;;2.53;2.20;;;24.70;99.90;;;;;;6247606;27;89031;-68
2023/08/28 01:41:25;;;;;;;2.65;2.45;;;24.80;99.90;;;;;;6252384;28;88010;-68
2023/08/28 01:44:31;;;;;;;2.42;2.22;;;24.70;99.90;;;;;;6253501;28;88031;-68
2023/08/28 01:47:32;;;;;;;2.50;2.30;;;24.70;99.90;;;;;;6239304;28;89074;-69
2023/08/28 01:50:35;;;;;;;2.88;2.58;;;24.70;99.90;;;;;;6247766;28;88297;-69
2023/08/28 01:53:37;;;;;;;2.92;2.50;;;24.80;99.90;;;;;;6250440;28;89069;-68
2023/08/28 01:56:40;;;;;;;3.20;2.90;;;24.70;99.90;;;;;;6239698;28;90074;-69
2023/08/28 01:59:42;;;;;;;2.83;2.53;;;24.70;99.90;;;;;;6235011;27;89848;-69
2023/08/28 02:02:44;;;;;;;2.72;2.30;;;24.70;99.90;;;;;;6253391;28;89094;-68
2023/08/28 02:05:46;;;;;;;2.70;2.50;;;24.70;99.90;;;;;;6246365;27;89202;-69
2023/08/28 02:08:48;;;;;;;3.70;2.33;;;24.70;99.90;;;;;;6246853;27;90103;-69
2023/08/28 02:11:53;;;;;;;2.53;2.33;;;24.70;99.90;;;;;;6244570;28;88832;-69
2023/08/28 02:14:55;;;;;;;2.90;2.50;;;24.70;99.90;;;;;;6251373;27;89090;-68
2023/08/28 02:17:57;;;;;;;2.33;2.13;;;24.70;99.90;;;;;;6236444;28;89089;-69
2023/08/28 02:20:59;;;;;;;2.42;2.20;;;24.70;99.90;;;;;;6243107;28;87227;-69
2023/08/28 02:24:01;;;;;;;2.55;2.35;;;24.70;99.90;;;;;;6237953;28;90357;-68
2023/08/28 02:27:04;;;;;;;2.33;2.10;;;24.70;99.90;;;;;;6241270;28;88192;-69
2023/08/28 02:30:09;;;;;;;2.30;2.05;;;24.70;99.90;;;;;;6243854;28;90045;-68
2023/08/28 02:33:11;;;;;;;2.42;2.03;;;24.70;99.90;;;;;;6244112;28;89215;-69
2023/08/28 02:36:13;;;;;;;2.03;1.80;;;24.70;99.90;;;;;;6245364;27;89538;-69
2023/08/28 02:39:15;;;;;;;2.67;2.30;;;24.70;99.90;;;;;;6243921;28;89135;-68
2023/08/28 02:42:19;;;;;;;1.95;1.80;;;24.70;99.90;;;;;;6248699;27;89046;-69
2023/08/28 02:45:20;;;;;;;2.58;2.38;;;24.70;99.90;;;;;;6240284;28;89496;-69
2023/08/28 02:48:22;;;;;;;2.20;2.00;;;24.70;99.90;;;;;;6241735;28;89056;-69
2023/08/28 02:51:24;;;;;;;2.30;2.10;;;24.70;99.90;;;;;;6251923;27;88366;-69
2023/08/28 02:54:26;;;;;;;2.58;2.20;;;24.70;99.90;;;;;;6251301;27;89361;-69
2023/08/28 02:57:30;;;;;;;2.33;2.13;;;24.70;99.90;;;;;;6251504;28;90418;-69
2023/08/28 03:00:32;;;;;;;2.63;2.30;;;24.70;99.90;;;;;;6250911;27;89990;-68
2023/08/28 03:03:35;;;;;;;2.33;2.05;;;24.70;99.90;;;;;;6245532;28;89146;-69
2023/08/28 03:06:37;;;;;;;3.00;2.10;;;24.70;99.90;;;;;;6252084;27;88988;-69
2023/08/28 03:09:39;;;;;;;2.25;2.03;;;24.70;99.90;;;;;;6248775;28;89066;-69
2023/08/28 03:12:42;;;;;;;2.83;2.35;;;24.60;99.90;;;;;;6244962;28;89411;-69
2023/08/28 03:15:44;;;;;;;2.05;1.90;;;24.60;99.90;;;;;;6256136;28;89249;-68
2023/08/28 03:18:46;;;;;;;2.28;1.90;;;24.70;99.90;;;;;;6247425;28;89347;-69
2023/08/28 03:21:48;;;;;;;2.08;1.88;;;24.70;99.90;;;;;;6250827;28;88340;-69
2023/08/28 03:24:52;;;;;;;2.08;1.80;;;24.60;99.90;;;;;;6250537;28;89104;-68
2023/08/28 03:27:55;;;;;;;2.10;1.90;;;24.60;99.90;;;;;;6251174;27;89061;-68
2023/08/28 03:30:57;;;;;;;3.00;2.20;;;24.70;99.90;;;;;;6243427;27;90036;-68
2023/08/28 03:34:00;;;;;;;2.42;2.03;;;24.70;99.90;;;;;;6232043;28;89130;-69
2023/08/28 03:37:02;;;;;;;1.90;1.80;;;24.60;99.90;;;;;;6255646;28;89558;-68
2023/08/28 03:40:05;;;;;;;3.38;2.20;;;24.60;99.90;;;;;;6245811;28;89114;-68
2023/08/28 03:43:08;;;;;;;3.17;2.45;;;24.60;99.90;;;;;;6241107;27;89016;-69
2023/08/28 03:46:10;;;;;;;5.60;2.88;;;24.60;99.90;;;;;;6251021;28;89090;-68
2023/08/28 03:49:12;;;;;;;4.43;2.22;;;24.60;99.90;;;;;;6245104;28;89111;-68
2023/08/28 03:52:14;;;;;;;5.57;2.60;;;24.60;99.90;;;;;;6256461;28;87541;-68
2023/08/28 03:55:22;;;;;;;5.07;2.33;;;24.60;99.90;;;;;;6238310;28;89138;-68
2023/08/28 03:58:28;;;;;;;4.30;2.72;;;24.60;99.90;;;;;;6239950;27;89353;-68
2023/08/28 04:01:30;;;;;;;3.65;2.58;;;24.60;99.90;;;;;;6250283;28;89996;-68
2023/08/28 04:04:32;;;;;;;3.92;2.72;;;24.60;99.90;;;;;;6253162;27;89062;-68
2023/08/28 04:07:34;;;;;;;4.65;2.80;;;24.60;99.90;;;;;;6242754;28;89410;-69
2023/08/28 04:10:37;;;;;;;3.92;3.00;;;24.60;99.90;;;;;;6253969;28;89506;-68
2023/08/28 04:13:41;;;;;;;3.55;2.38;;;24.60;99.90;;;;;;6242075;28;89097;-68
2023/08/28 04:16:43;;;;;;;5.90;2.90;;;24.60;99.90;;;;;;6252380;27;89039;-68
2023/08/28 04:19:45;;;;;;;4.07;2.90;;;24.60;99.90;;;;;;6256517;28;89423;-69
2023/08/28 04:22:47;;;;;;;3.60;3.00;;;24.60;99.90;;;;;;6245372;27;88509;-69
2023/08/28 04:25:49;;;;;;;3.03;2.63;;;24.60;99.90;;;;;;6256535;27;88237;-68
2023/08/28 04:28:52;;;;;;;5.10;3.33;;;24.60;99.90;;;;;;6252360;27;88964;-69
2023/08/28 04:31:54;;;;;;;3.42;2.95;;;24.70;99.90;;;;;;6252599;27;89967;-68
2023/08/28 04:34:56;;;;;;;3.90;2.85;;;24.60;99.90;;;;;;6243991;27;88911;-68
2023/08/28 04:37:58;;;;;;;4.80;3.20;;;24.60;99.90;;;;;;6249021;27;89089;-68
2023/08/28 04:41:00;;;;;;;3.88;2.78;;;24.60;99.90;;;;;;6246997;27;89003;-68
2023/08/28 04:44:04;;;;;;;4.07;3.10;;;24.60;99.90;;;;;;6244816;27;89439;-68
2023/08/28 04:47:06;;;;;;;3.13;2.90;;;24.60;99.90;;;;;;6241001;27;89065;-69
2023/08/28 04:50:09;;;;;;;3.58;3.03;;;24.60;99.90;;;;;;6252892;27;89023;-69
2023/08/28 04:53:10;;;;;;;3.58;3.20;;;24.60;99.90;;;;;;6241328;27;87800;-69
2023/08/28 04:56:12;;;;;;;3.40;3.03;;;24.60;99.90;;;;;;6235597;27;89136;-69
2023/08/28 04:59:16;;;;;;;3.50;3.05;;;24.60;99.90;;;;;;6245759;27;89163;-69
2023/08/28 05:02:19;;;;;;;3.45;3.15;;;24.60;99.90;;;;;;6255617;27;90047;-68
2023/08/28 05:05:21;;;;;;;3.20;2.88;;;24.60;99.90;;;;;;6255145;27;89249;-68
2023/08/28 05:08:23;;;;;;;3.20;2.90;;;24.60;99.90;;;;;;6249130;27;89283;-68
2023/08/28 05:11:25;;;;;;;4.07;3.15;;;24.60;99.90;;;;;;6237998;27;89297;-68
2023/08/28 05:14:28;;;;;;;3.55;3.03;;;24.60;99.90;;;;;;6241857;27;89144;-68
2023/08/28 05:17:30;;;;;;;3.80;3.10;;;24.60;99.90;;;;;;6244796;27;87961;-68
2023/08/28 05:20:32;;;;;;;3.67;2.92;;;24.60;99.90;;;;;;6234720;27;89122;-69
2023/08/28 05:23:34;;;;;;;3.75;2.88;;;24.60;99.90;;;;;;6252537;28;88463;-67
2023/08/28 05:26:36;;;;;;;3.22;2.92;;;24.60;99.90;;;;;;6237287;28;88007;-68
2023/08/28 05:29:39;;;;;;;3.25;2.95;;;24.60;99.90;;;;;;6244920;28;89057;-68
2023/08/28 05:32:41;;;;;;;3.38;2.90;;;24.60;99.90;;;;;;6242408;28;90322;-69
2023/08/28 05:35:45;;;;;;;3.75;2.78;;;24.60;99.90;;;;;;6245837;27;89884;-67
2023/08/28 05:38:47;;;;;;;3.03;2.70;;;24.60;99.90;;;;;;6247686;28;89340;-68
2023/08/28 05:41:49;;;;;;;3.13;2.78;;;24.60;99.90;;;;;;6244261;28;89070;-68
2023/08/28 05:44:52;;;;;;;3.20;2.90;;;24.60;99.90;;;;;;6233140;28;89470;-68
2023/08/28 05:47:54;;;;;;;3.10;2.80;;;24.70;99.90;;;;;;6241380;28;89174;-69
2023/08/28 05:50:56;;;;;;;3.75;2.53;;;24.70;99.90;;;;;;6242599;28;89247;-70
2023/08/28 05:53:58;;;;;;;2.75;2.55;;;24.70;99.90;;;;;;6249514;28;87179;-68
2023/08/28 05:57:00;;;;;;;2.67;2.47;;;24.70;99.90;;;;;;6255959;28;89085;-67
2023/08/28 06:00:04;;;;;;;3.25;2.55;;;24.70;99.90;;;;;;6236003;28;89163;-67
2023/08/28 06:03:06;;;;;;;4.25;2.80;;;24.70;99.90;;;;;;6235882;28;89999;-68
2023/08/28 06:06:08;;;;;;;3.17;2.63;;;24.70;99.90;;;;;;6249993;28;90470;-68
2023/08/28 06:09:10;;;;;;;2.75;2.50;;;24.70;99.90;;;;;;6232051;28;89085;-68
2023/08/28 06:12:12;;;;;;;2.70;2.50;;;24.70;99.90;;;;;;6250159;28;89050;-67
2023/08/28 06:15:16;;;;;;;2.70;2.35;;;24.60;99.90;;;;;;6251578;28;89138;-67
2023/08/28 06:18:19;;;;;;;2.50;2.30;;;24.70;99.90;;;;;;6249013;28;89059;-68
2023/08/28 06:21:21;;;;;;;3.55;2.33;;;24.70;99.90;;;;;;6246593;28;89151;-69
2023/08/28 06:24:23;;;;;;;4.00;2.72;;;24.70;99.90;;;;;;6242255;27;88343;-68
2023/08/28 06:27:25;;;;;;;4.25;3.05;;;24.60;99.90;;;;;;6253412;27;89218;-69
2023/08/28 06:30:29;;;;;;;2.20;2.00;;;24.60;99.90;;;;;;6263314;27;89210;-68
2023/08/28 06:33:31;;;;;;;2.30;2.10;;;24.70;99.90;;;;;;6250940;27;90353;-68
2023/08/28 06:36:33;;;;;;;2.40;2.20;;;24.70;99.90;;;;;;6248777;27;89353;-68
2023/08/28 06:39:35;;;;;;;3.13;2.30;;;24.60;99.90;;;;;;6253528;27;88258;-68
2023/08/28 06:42:38;;;;;;;2.30;2.10;;;24.70;99.90;;;;;;6257442;27;89098;-68
2023/08/28 06:45:43;;;;;;;2.78;2.25;;;24.70;99.90;;;;;;6247136;27;89551;-68
2023/08/28 06:48:45;;;;;;;2.42;2.10;;;24.60;99.90;;;;;;6256869;27;90764;-68
2023/08/28 06:51:47;;;;;;;2.30;2.10;;;24.60;99.90;;;;;;6247758;27;89441;-68
2023/08/28 06:54:49;;;;;;;3.05;2.45;;;24.60;99.90;;;;;;6258329;27;88482;-68
2023/08/28 06:57:51;;;;;;;2.95;2.30;;;24.60;99.90;;;;;;6254894;27;88965;-68
2023/08/28 07:00:55;;;;;;;2.15;1.90;;;24.60;99.90;;;;;;6260705;27;87869;-68
2023/08/28 07:03:56;;;;;;;2.90;2.38;;;24.60;99.90;;;;;;6256402;27;90140;-68
2023/08/28 07:06:58;;;;;;;2.30;2.10;;;24.60;99.90;;;;;;6250989;27;89058;-68
2023/08/28 07:10:01;;;;;;;2.40;2.20;;;24.60;99.90;;;;;;6252839;27;89071;-68
2023/08/28 07:13:03;;;;;;;2.22;2.03;;;24.60;99.90;;;;;;6257209;27;88991;-68
2023/08/28 07:16:06;;;;;;;2.63;2.25;;;24.70;99.90;;;;;;6251200;27;89098;-68
2023/08/28 07:19:08;;;;;;;2.40;2.03;;;24.60;99.90;;;;;;6248447;27;89179;-67
2023/08/28 07:22:10;;;;;;;2.40;2.17;;;24.60;99.90;;;;;;6259149;27;89103;-68
2023/08/28 07:25:12;;;;;;;2.38;2.17;;;24.60;99.90;;;;;;6249772;28;87259;-68
2023/08/28 07:28:14;;;;;;;2.28;2.08;;;24.60;99.90;;;;;;6248272;28;89555;-68
2023/08/28 07:31:17;;;;;;;2.40;2.20;;;24.60;99.90;;;;;;6248122;28;89455;-68
2023/08/28 07:34:19;;;;;;;2.72;2.25;;;24.60;99.90;;;;;;6247519;27;89942;-68
2023/08/28 07:37:21;;;;;;;2.97;2.42;;;24.60;99.90;;;;;;6248861;28;89013;-68
2023/08/28 07:40:24;;;;;;;2.75;2.38;;;24.60;99.90;;;;;;6242364;28;89033;-68
2023/08/28 07:43:26;;;;;;;2.50;2.30;;;24.60;99.90;;;;;;6235040;28;90235;-69
2023/08/28 07:46:30;;;;;;;2.78;2.38;;;24.60;99.90;;;;;;6249791;28;89462;-68
2023/08/28 07:49:33;;;;;;;2.90;2.35;;;24.60;99.90;;;;;;6246701;28;88109;-68
2023/08/28 07:52:34;;;;;;;2.45;2.22;;;24.60;99.90;;;;;;6251219;27;89289;-68
2023/08/28 07:55:37;;;;;;;3.00;2.08;;;24.60;99.90;;;;;;6241782;28;88332;-68
2023/08/28 07:58:39;;;;;;;2.55;2.08;;;24.60;99.90;;;;;;6250761;28;87988;-68
2023/08/28 08:01:42;;;;;;;2.17;1.98;;;24.60;99.90;;;;;;6243671;28;89470;-68
2023/08/28 08:04:44;;;;;;;2.92;2.03;;;24.60;99.90;;;;;;6251238;28;89094;-68
2023/08/28 08:07:46;;;;;;;3.00;2.40;;;24.50;99.90;;;;;;6246112;27;88730;-68
2023/08/28 08:10:48;;;;;;;2.40;2.10;;;24.60;99.90;;;;;;6239753;28;89072;-68
2023/08/28 08:13:50;;;;;;;2.20;2.00;;;24.50;99.90;;;;;;6236011;28;89150;-68
2023/08/28 08:16:53;;;;;;;2.22;2.03;;;24.50;99.90;;;;;;6250029;28;89476;-68
2023/08/28 08:19:55;;;;;;;3.22;2.08;;;24.50;99.90;;;;;;6240660;28;89133;-68
2023/08/28 08:22:57;;;;;;;2.22;2.00;;;24.50;99.90;;;;;;6237059;28;89117;-68
2023/08/28 08:25:59;;;;;;;3.50;2.05;;;24.60;99.90;;;;;;6245847;28;88317;-68
2023/08/28 08:29:01;;;;;;;2.80;2.20;;;24.60;99.90;;;;;;6249737;28;87961;-68
2023/08/28 08:32:05;;;;;;;2.20;1.98;;;24.50;99.90;;;;;;6249444;27;89120;-67
2023/08/28 08:35:08;;;;;;;2.42;2.10;;;24.50;99.90;;;;;;6249028;28;91280;-68
2023/08/28 08:38:09;;;;;;;2.80;2.10;;;24.50;99.90;;;;;;6244163;28;89072;-67
2023/08/28 08:41:12;;;;;;;2.30;2.10;;;24.50;99.90;;;;;;6241514;28;89047;-68
2023/08/28 08:44:14;;;;;;;2.17;1.98;;;24.50;99.90;;;;;;6251380;27;88991;-68
2023/08/28 08:47:19;;;;;;;2.20;1.88;;;24.50;99.90;;;;;;6255865;28;89072;-68
2023/08/28 08:50:23;;;;;;;2.13;1.92;;;24.50;99.90;;;;;;6239104;28;89197;-67
2023/08/28 08:53:31;;;;;;;2.28;2.00;;;24.50;99.90;;;;;;6199745;28;88040;-68
2023/08/28 08:56:36;;;;;;;2.97;2.30;;;24.50;99.90;;;;;;6243977;28;87325;-68
2023/08/28 08:59:38;;;;;;;3.15;2.40;;;24.50;99.90;;;;;;6251952;27;88998;-68
2023/08/28 09:02:42;;;;;;;2.33;2.13;;;24.50;99.90;;;;;;6259029;28;87972;-68
2023/08/28 09:05:45;;;;;;;2.20;2.00;;;24.50;99.90;;;;;;6235851;27;90135;-68
2023/08/28 09:08:47;;;;;;;2.28;1.90;;;24.50;99.90;;;;;;6244754;28;89099;-68
2023/08/28 09:11:49;;;;;;;2.03;1.83;;;24.50;99.90;;;;;;6246114;28;89175;-68
2023/08/28 09:14:51;;;;;;;2.00;1.80;;;24.50;99.90;;;;;;6233804;27;89346;-68
2023/08/28 09:17:55;;;;;;;2.78;2.17;;;24.50;99.90;;;;;;6254897;28;89094;-68
2023/08/28 09:21:08;;;;;;;2.97;2.22;;;24.50;99.90;;;;;;6249779;27;87974;-68
2023/08/28 09:24:10;;;;;;;2.65;2.30;;;24.50;99.90;;;;;;6253190;27;89461;-69
2023/08/28 09:27:14;;;;;;;2.85;1.90;;;24.50;99.90;;;;;;6247627;27;88650;-68
2023/08/28 09:30:28;;;;;;;3.20;2.30;;;24.50;99.90;;;;;;6250535;27;88951;-68
2023/08/28 09:33:44;;;;;;;2.42;2.00;;;24.50;99.90;;;;;;6241624;27;89306;-69
2023/08/28 09:36:46;;;;;;;3.75;2.38;;;24.50;99.90;;;;;;6249888;27;90106;-68
2023/08/28 09:39:56;;;;;;;2.22;2.03;;;24.50;99.90;;;;;;6247242;27;89152;-69
2023/08/28 09:42:59;;;;;;;2.67;2.38;;;24.50;99.90;;;;;;6244659;27;89112;-68
2023/08/28 09:46:01;;;;;;;2.47;2.10;;;24.50;99.90;;;;;;6237404;27;89292;-68
2023/08/28 09:49:05;;;;;;;2.95;2.60;;;24.50;99.90;;;;;;6248770;27;89029;-69
2023/08/28 09:52:11;;;;;;;2.83;2.60;;;24.50;99.90;;;;;;6255560;27;88996;-69
2023/08/28 09:55:13;;;;;;;3.45;2.53;;;24.50;99.90;;;;;;6251992;27;89008;-69
2023/08/28 09:58:16;;;;;;;3.25;2.88;;;24.50;99.90;;;;;;6238531;27;88330;-68
2023/08/28 10:01:18;;;;;;;2.90;2.58;;;24.50;99.90;;;;;;6244535;27;88999;-69
2023/08/28 10:04:22;;;;;;;3.42;2.70;;;24.50;99.90;;;;;;6245438;27;89211;-69
2023/08/28 10:07:25;;;;;;;2.70;2.50;;;24.50;99.90;;;;;;6240053;27;90003;-69
2023/08/28 10:10:27;;;;;;;2.65;2.45;;;24.50;99.90;;;;;;6253106;27;89046;-69
2023/08/28 10:13:32;;;;;;;3.05;2.38;;;24.50;99.90;;;;;;6240340;27;89134;-69
2023/08/28 10:16:37;;;;;;;3.58;2.58;;;24.50;99.90;;;;;;6235643;27;89327;-69
2023/08/28 10:19:44;;;;;;;3.33;2.67;;;24.50;99.90;;;;;;6233462;27;89190;-69
2023/08/28 10:22:47;;;;;;;3.80;2.92;;;24.50;99.90;;;;;;6239235;28;89010;-69
2023/08/28 10:25:53;;;;;;;3.40;3.10;;;24.50;99.90;;;;;;6235421;28;89106;-68
2023/08/28 10:28:56;;;;;;;19.10;15.60;;;24.50;99.90;;;;;;6246383;28;87647;-68
2023/08/28 10:32:00;;;;;;;4.95;4.28;;;24.60;99.90;;;;;;6238227;27;89174;-68
2023/08/28 10:35:04;;;;;;;4.45;3.10;;;25.00;99.90;;;;;;6240933;27;89102;-68
2023/08/28 10:38:06;;;;;;;3.63;3.15;;;25.40;99.90;;;;;;6242130;28;90043;-69
2023/08/28 10:41:09;;;;;;;4.28;3.40;;;25.60;99.70;;;;;;6238961;28;88994;-70
2023/08/28 10:44:12;;;;;;;4.55;3.20;;;25.70;99.00;;;;;;6243771;28;89235;-70
2023/08/28 10:47:16;;;;;;;3.08;2.75;;;25.60;98.80;;;;;;6238806;27;88959;-71
2023/08/28 10:50:19;;;;;;;4.60;3.05;;;25.60;98.90;;;;;;6239243;28;89041;-70
2023/08/28 10:53:21;;;;;;;3.55;2.90;;;25.50;99.30;;;;;;6243380;28;89051;-70
2023/08/28 10:56:23;;;;;;;6.15;3.33;;;25.40;99.50;;;;;;6242855;28;89016;-71
2023/08/28 10:59:26;;;;;;;4.65;2.97;;;25.30;99.70;;;;;;6237334;28;88231;-70
2023/08/28 11:03:09;;;;;;;4.43;3.00;;;25.20;99.70;;;;;;6244998;28;89135;-70
2023/08/28 11:06:36;;;;;;;2.88;2.53;;;25.10;99.90;;;;;;6249465;28;89067;-70
2023/08/28 11:09:39;;;;;;;4.57;3.00;;;25.10;99.90;;;;;;6233391;27;90018;-70
2023/08/28 11:12:53;;;;;;;5.28;2.83;;;25.10;99.90;;;;;;6239339;28;88177;-70
2023/08/28 11:16:04;;;;;;;4.75;2.80;;;25.00;99.90;;;;;;6239654;28;88645;-70
2023/08/28 11:19:06;;;;;;;4.45;3.10;;;24.90;99.90;;;;;;6238789;28;89192;-71
2023/08/28 11:22:09;;;;;;;5.30;3.28;;;24.90;99.90;;;;;;6244851;28;89430;-70
2023/08/28 11:25:13;;;;;;;5.88;3.25;;;24.90;99.90;;;;;;6249023;28;89417;-68
2023/08/28 11:28:26;;;;;;;5.53;3.53;;;24.80;99.90;;;;;;6251538;28;89131;-69
2023/08/28 11:31:33;;;;;;;4.13;3.28;;;24.80;99.90;;;;;;6249752;28;87339;-69
2023/08/28 11:34:35;;;;;;;5.53;3.20;;;24.80;99.90;;;;;;6228037;28;88249;-69
2023/08/28 11:37:41;;;;;;;6.95;3.42;;;24.80;99.90;;;;;;6245225;27;89220;-69
2023/08/28 11:40:44;;;;;;;5.47;3.50;;;24.80;99.90;;;;;;6252091;27;90342;-69
2023/08/28 11:43:46;;;;;;;4.93;3.40;;;24.70;99.90;;;;;;6242360;28;89201;-69
2023/08/28 11:46:48;;;;;;;5.68;3.40;;;24.70;99.90;;;;;;6238815;28;89834;-70
2023/08/28 11:49:50;;;;;;;6.40;3.40;;;24.70;99.90;;;;;;6247562;28;89156;-69
2023/08/28 11:52:54;;;;;;;7.20;3.50;;;24.70;99.90;;;;;;6237375;28;87938;-69
2023/08/28 11:55:56;;;;;;;4.88;3.42;;;24.70;99.90;;;;;;6248299;28;89327;-69
2023/08/28 11:58:59;;;;;;;3.35;3.03;;;24.70;99.90;;;;;;6248394;27;89772;-70
2023/08/28 12:02:03;;;;;;;5.35;3.28;;;24.70;99.90;;;;;;6241761;27;87236;-71
2023/08/28 12:05:07;;;;;;;5.40;3.80;;;24.70;99.90;;;;;;6248282;28;89122;-70
2023/08/28 12:08:11;;;;;;;4.68;3.45;;;24.70;99.90;;;;;;6245743;28;89332;-69
2023/08/28 12:11:14;;;;;;;4.22;3.65;;;24.70;99.90;;;;;;6237003;28;90225;-70
2023/08/28 12:14:17;;;;;;;4.10;3.35;;;24.70;99.90;;;;;;6236319;28;89550;-69
2023/08/28 12:17:20;;;;;;;5.10;3.50;;;24.70;99.90;;;;;;6244536;28;89112;-69
2023/08/28 12:20:22;;;;;;;7.22;3.53;;;24.70;99.90;;;;;;6240587;28;88975;-70
2023/08/28 12:23:26;;;;;;;5.65;3.60;;;24.70;99.90;;;;;;6243579;28;88106;-70
2023/08/28 12:26:30;;;;;;;4.75;3.28;;;24.70;99.90;;;;;;6251404;27;89327;-69
2023/08/28 12:29:34;;;;;;;4.95;3.38;;;24.70;99.90;;;;;;6239069;28;89256;-68
2023/08/28 12:32:36;;;;;;;6.68;3.75;;;24.60;99.90;;;;;;6242404;28;88399;-68
2023/08/28 12:35:40;;;;;;;8.18;4.50;;;24.70;99.90;;;;;;6240966;28;89127;-69
2023/08/28 12:38:50;;;;;;;8.35;4.30;;;24.60;99.90;;;;;;6253105;27;89132;-68
2023/08/28 12:41:54;;;;;;;8.93;4.57;;;24.60;99.90;;;;;;6246058;27;90099;-69
2023/08/28 12:44:56;;;;;;;8.95;4.85;;;24.60;99.90;;;;;;6233400;28;88764;-69
2023/08/28 12:47:58;;;;;;;10.25;4.60;;;24.60;99.90;;;;;;6251825;28;89328;-68
2023/08/28 12:51:00;;;;;;;10.05;5.20;;;24.60;99.90;;;;;;6252044;27;88976;-68
2023/08/28 12:54:05;;;;;;;8.05;4.88;;;24.60;99.90;;;;;;6244318;27;89107;-69
2023/08/28 12:57:10;;;;;;;11.73;5.22;;;24.60;99.90;;;;;;6243947;28;89580;-70
2023/08/28 13:00:13;;;;;;;12.02;5.10;;;24.60;99.90;;;;;;6247706;28;89168;-69
2023/08/28 13:03:15;;;;;;;8.45;4.63;;;24.60;99.90;;;;;;6255235;28;88269;-67
2023/08/28 13:06:17;;;;;;;14.02;4.88;;;24.60;99.90;;;;;;6249286;28;87963;-67
2023/08/28 13:09:21;;;;;;;7.50;4.65;;;24.60;99.90;;;;;;6252668;28;88928;-68
2023/08/28 13:12:23;;;;;;;7.20;4.32;;;24.60;99.90;;;;;;6248953;28;89961;-68
2023/08/28 13:15:25;;;;;;;9.25;3.92;;;24.60;99.90;;;;;;6240886;27;89141;-68
2023/08/28 13:18:28;;;;;;;9.00;4.40;;;24.60;99.90;;;;;;6251555;27;89018;-68
2023/08/28 13:21:30;;;;;;;6.97;4.20;;;24.60;99.90;;;;;;6240853;28;89186;-68
2023/08/28 13:24:33;;;;;;;8.25;4.30;;;24.60;99.90;;;;;;6240776;28;88980;-68
2023/08/28 13:27:35;;;;;;;7.93;4.55;;;24.60;99.90;;;;;;6231289;28;90048;-68
2023/08/28 13:30:39;;;;;;;8.25;4.05;;;24.60;99.90;;;;;;6244545;28;88791;-68
2023/08/28 13:33:41;;;;;;;7.78;4.05;;;24.50;99.90;;;;;;6247109;28;88340;-68
2023/08/28 13:36:43;;;;;;;6.47;4.18;;;24.50;99.90;;;;;;6244278;28;89092;-68
2023/08/28 13:39:46;;;;;;;6.93;3.95;;;24.50;99.90;;;;;;6254077;28;89183;-68
2023/08/28 13:42:48;;;;;;;6.25;4.00;;;24.50;99.90;;;;;;6251856;28;89208;-68
2023/08/28 13:45:51;;;;;;;5.55;3.60;;;24.60;99.90;;;;;;6234067;28;89409;-68
2023/08/28 13:48:53;;;;;;;6.22;3.80;;;24.60;99.90;;;;;;6243377;28;89014;-68
2023/08/28 13:51:55;;;;;;;6.15;3.80;;;24.60;99.90;;;;;;6244480;28;89204;-68
2023/08/28 13:55:04;;;;;;;6.70;4.05;;;24.50;99.90;;;;;;6241237;28;89112;-68
2023/08/28 13:58:06;;;;;;;6.50;3.90;;;24.60;99.90;;;;;;6249064;28;89449;-68
2023/08/28 14:01:08;;;;;;;6.68;4.00;;;24.60;99.90;;;;;;6246084;28;89309;-68
2023/08/28 14:04:10;;;;;;;6.05;3.78;;;24.50;99.90;;;;;;6252226;28;88928;-68
2023/08/28 14:07:13;;;;;;;4.57;3.55;;;24.60;99.90;;;;;;6247785;27;89028;-68
2023/08/28 14:10:17;;;;;;;5.75;3.75;;;24.60;99.90;;;;;;6238127;28;90660;-68
2023/08/28 14:13:19;;;;;;;4.90;3.33;;;24.50;99.90;;;;;;6244048;28;90005;-69
2023/08/28 14:16:21;;;;;;;5.82;3.70;;;24.50;99.90;;;;;;6252926;28;88994;-69
2023/08/28 14:19:23;;;;;;;5.63;3.72;;;24.50;99.90;;;;;;6240135;28;89312;-69
2023/08/28 14:22:25;;;;;;;5.03;3.30;;;24.50;99.90;;;;;;6245521;28;89680;-68
2023/08/28 14:25:30;;;;;;;5.10;3.63;;;24.50;99.90;;;;;;6244897;27;88977;-68
2023/08/28 14:28:32;;;;;;;4.10;3.30;;;24.50;99.90;;;;;;6252545;28;89111;-68
2023/08/28 14:31:34;;;;;;;4.88;3.63;;;24.50;99.90;;;;;;6247809;28;88793;-68
2023/08/28 14:34:36;;;;;;;3.90;3.13;;;24.50;99.90;;;;;;6244861;28;87221;-69
2023/08/28 14:37:38;;;;;;;8.85;3.42;;;24.50;99.90;;;;;;6243633;28;89033;-68
2023/08/28 14:40:42;;;;;;;5.97;3.50;;;24.50;99.90;;;;;;6246089;28;88333;-68
2023/08/28 14:43:44;;;;;;;5.88;3.22;;;24.50;99.90;;;;;;6242602;28;90221;-68
2023/08/28 14:46:46;;;;;;;3.45;2.90;;;24.50;99.90;;;;;;6246773;28;89317;-68
2023/08/28 14:49:49;;;;;;;6.00;3.25;;;24.50;99.90;;;;;;6245672;27;88968;-68
2023/08/28 14:52:51;;;;;;;5.97;3.33;;;24.50;99.90;;;;;;6245178;27;89147;-68
2023/08/28 14:55:55;;;;;;;4.18;3.53;;;24.50;99.90;;;;;;6243456;28;88290;-68
2023/08/28 14:58:58;;;;;;;3.45;2.88;;;24.50;99.90;;;;;;6248355;28;89448;-68
2023/08/28 15:02:01;;;;;;;3.85;2.80;;;24.50;99.90;;;;;;6249368;27;89353;-68
2023/08/28 15:05:04;;;;;;;3.70;2.90;;;24.50;99.90;;;;;;6245359;28;87328;-69
2023/08/28 15:08:07;;;;;;;4.72;3.08;;;24.50;99.90;;;;;;6239885;27;88000;-68
2023/08/28 15:11:11;;;;;;;4.18;2.80;;;24.50;99.90;;;;;;6249524;27;89434;-69
2023/08/28 15:14:14;;;;;;;3.33;2.65;;;24.50;99.90;;;;;;6247656;28;89991;-68
2023/08/28 15:17:16;;;;;;;4.45;3.03;;;24.50;99.90;;;;;;6252482;27;88300;-68
2023/08/28 15:20:19;;;;;;;3.85;2.90;;;24.50;99.90;;;;;;6245726;27;88188;-69
2023/08/28 15:23:21;;;;;;;3.03;2.53;;;24.50;99.90;;;;;;6244296;28;89117;-68
2023/08/28 15:26:25;;;;;;;3.75;2.58;;;24.50;99.90;;;;;;6254450;28;89215;-68
2023/08/28 15:29:28;;;;;;;3.47;2.60;;;24.50;99.90;;;;;;6257227;27;89089;-68
2023/08/28 15:32:31;;;;;;;2.92;2.63;;;24.50;99.90;;;;;;6251480;28;88303;-68
2023/08/28 15:35:33;;;;;;;3.78;2.58;;;24.50;99.90;;;;;;6234987;28;87606;-68
2023/08/28 15:38:36;;;;;;;3.58;2.50;;;24.50;99.90;;;;;;6255020;27;89047;-67
2023/08/28 15:41:40;;;;;;;3.58;2.47;;;24.50;99.90;;;;;;6256640;28;89246;-67
2023/08/28 15:44:43;;;;;;;3.33;2.30;;;24.50;99.90;;;;;;6244214;27;89004;-67
2023/08/28 15:47:46;;;;;;;3.63;2.40;;;24.50;99.90;;;;;;6247796;28;88085;-67
2023/08/28 15:50:49;;;;;;;2.90;2.60;;;24.50;99.90;;;;;;6247372;27;88638;-67